Time;durP1;ratioP1;P1;durP2;ratioP2;P2;SDS_P1;SDS_P2;PMS_P1;PMS_P2;Temp;Humidity;BMP_temperature;BMP_pressure;BME280_temperature;BME280_humidity;BME280_pressure;Samples;Min_cycle;Max_cycle;Signal;HPM_P1;HPM_P2
2021/04/18 00:08:51;;;;;;;62.37;34.30;;;;;;;6.32;83.17;99765.94;466800;1173;115909;-69
2021/04/18 00:18:55;;;;;;;51.77;32.33;;;;;;;6.28;83.22;99760.00;468646;1174;116960;-67
2021/04/18 00:28:59;;;;;;;43.50;28.87;;;;;;;6.29;83.75;99772.13;468089;1174;116030;-67
2021/04/18 00:39:04;;;;;;;52.70;32.95;;;;;;;6.24;83.66;99757.59;467291;1174;115847;-71
2021/04/18 00:49:08;;;;;;;48.20;30.90;;;;;;;6.27;83.53;99755.70;470682;1173;115931;-72
2021/04/18 00:59:12;;;;;;;71.00;44.15;;;;;;;6.34;83.16;99748.45;466874;1174;116303;-71
2021/04/18 01:09:16;;;;;;;53.50;34.10;;;;;;;6.29;83.09;99756.48;467272;1173;116735;-70
2021/04/18 01:19:19;;;;;;;56.80;34.20;;;;;;;6.26;83.35;99754.02;467392;1174;116264;-70
2021/04/18 01:29:24;;;;;;;56.60;34.95;;;;;;;6.31;83.40;99746.00;467190;1174;117144;-70
2021/04/18 01:39:28;;;;;;;57.50;35.75;;;;;;;6.23;83.21;99751.52;467984;1174;117035;-73
2021/04/18 01:49:32;;;;;;;59.65;37.85;;;;;;;6.15;83.65;99751.86;467694;1175;115361;-73
2021/04/18 01:59:35;;;;;;;57.25;35.75;;;;;;;6.12;83.42;99752.00;466947;1174;116155;-69
2021/04/18 02:09:39;;;;;;;61.60;39.00;;;;;;;6.12;83.24;99741.56;467995;1173;116926;-66
2021/04/18 02:19:43;;;;;;;64.17;41.57;;;;;;;6.03;83.70;99731.53;466931;1174;116537;-66
2021/04/18 02:29:47;;;;;;;65.70;39.45;;;;;;;5.98;84.03;99728.26;466829;1174;117274;-66
2021/04/18 02:39:51;;;;;;;63.18;40.68;;;;;;;5.95;83.77;99728.40;467697;1174;116059;-65
2021/04/18 02:49:55;;;;;;;68.43;37.30;;;;;;;5.86;83.85;99725.27;468155;1173;116052;-67
2021/04/18 02:59:59;;;;;;;68.50;41.53;;;;;;;5.82;84.16;99715.03;466960;1170;118252;-70
2021/04/18 03:10:03;;;;;;;72.00;44.10;;;;;;;5.71;83.88;99711.11;467603;1174;115626;-64
2021/04/18 03:20:08;;;;;;;79.63;46.10;;;;;;;5.56;84.13;99725.62;466885;1175;116317;-64
2021/04/18 03:30:14;;;;;;;84.17;45.57;;;;;;;5.45;84.80;99738.23;468120;1174;115728;-66
2021/04/18 03:40:19;;;;;;;86.00;49.10;;;;;;;5.42;84.76;99727.95;467641;1174;115711;-69
2021/04/18 03:50:23;;;;;;;76.55;43.20;;;;;;;5.40;85.06;99745.39;466875;1174;117458;-70
2021/04/18 04:00:26;;;;;;;75.70;43.80;;;;;;;5.39;84.74;99747.14;467219;1173;115905;-69
2021/04/18 04:10:30;;;;;;;64.10;32.50;;;;;;;5.44;85.42;99762.58;467371;1173;116105;-70
2021/04/18 04:20:33;;;;;;;55.27;31.30;;;;;;;5.51;84.70;99768.39;466721;1174;116081;-69
2021/04/18 04:30:38;;;;;;;57.40;33.67;;;;;;;5.65;85.28;99757.42;467273;1174;116150;-69
2021/04/18 04:40:42;;;;;;;61.53;33.70;;;;;;;5.86;85.43;99761.75;467250;1173;115774;-66
2021/04/18 04:50:46;;;;;;;57.10;30.25;;;;;;;6.03;85.19;99755.85;466987;1174;116390;-66
2021/04/18 05:00:50;;;;;;;61.97;33.60;;;;;;;6.19;84.35;99762.17;467227;1174;116469;-68
2021/04/18 05:10:54;;;;;;;68.90;35.17;;;;;;;6.32;84.83;99763.34;468501;1174;116325;-66
2021/04/18 05:20:57;;;;;;;58.60;31.80;;;;;;;6.53;84.38;99776.35;467574;1174;115991;-66
2021/04/18 05:31:01;;;;;;;55.77;29.23;;;;;;;6.47;83.97;99774.86;467739;1174;116352;-65
2021/04/18 05:41:05;;;;;;;50.07;26.97;;;;;;;6.50;83.96;99779.08;467445;1174;116568;-67
2021/04/18 05:51:09;;;;;;;52.30;29.20;;;;;;;6.69;83.90;99779.09;467557;1174;115677;-66
2021/04/18 06:01:13;;;;;;;47.95;26.95;;;;;;;6.89;83.78;99791.27;467478;1174;116552;-67
2021/04/18 06:11:19;;;;;;;44.07;25.47;;;;;;;7.27;83.43;99775.57;467072;1174;116093;-66
2021/04/18 06:21:22;;;;;;;43.10;24.00;;;;;;;7.54;82.98;99776.94;467108;1174;116933;-65
2021/04/18 06:31:26;;;;;;;34.33;20.90;;;;;;;8.48;81.69;99780.97;466821;1174;115822;-66
2021/04/18 06:41:34;;;;;;;30.33;19.18;;;;;;;10.91;81.26;99773.39;466253;1174;115905;-65
2021/04/18 06:51:39;;;;;;;25.33;18.37;;;;;;;12.42;74.85;99776.80;467336;1174;116249;-65
2021/04/18 07:01:43;;;;;;;18.75;14.55;;;;;;;11.29;73.85;99779.80;467327;1174;116963;-65
2021/04/18 07:11:49;;;;;;;17.50;14.60;;;;;;;12.35;74.00;99793.96;466952;1174;116723;-65
2021/04/18 07:21:54;;;;;;;17.25;14.70;;;;;;;11.37;72.26;99790.67;467016;1173;116590;-66
2021/04/18 07:31:59;;;;;;;15.57;13.63;;;;;;;12.56;72.92;99792.48;466652;1174;117035;-67
2021/04/18 07:42:04;;;;;;;13.20;11.07;;;;;;;12.69;68.16;99805.63;467184;1174;118844;-66
2021/04/18 07:52:08;;;;;;;12.95;11.40;;;;;;;11.87;68.33;99811.95;467079;1174;116713;-68
2021/04/18 08:02:16;;;;;;;16.73;14.93;;;;;;;11.98;68.81;99813.89;466318;1174;117104;-69
2021/04/18 08:12:21;;;;;;;18.17;14.53;;;;;;;15.81;66.92;99814.89;467737;1174;116188;-69
2021/04/18 08:22:46;;;;;;;17.53;13.70;;;;;;;17.03;60.46;99810.89;467138;1174;116984;-66
2021/04/18 08:32:51;;;;;;;15.70;14.05;;;;;;;15.87;60.37;99824.98;467476;1174;116707;-66
2021/04/18 08:43:18;;;;;;;18.05;15.45;;;;;;;15.40;59.49;99819.95;467234;1173;116353;-67
2021/04/18 08:53:22;;;;;;;15.80;13.10;;;;;;;14.65;59.76;99817.81;467130;1174;117330;-66
2021/04/18 09:03:26;;;;;;;21.00;16.80;;;;;;;14.59;58.98;99805.09;452146;1174;10113094;-69
2021/04/18 09:13:30;;;;;;;15.80;13.20;;;;;;;14.79;59.00;99808.02;467313;1174;117359;-67
2021/04/18 09:23:59;;;;;;;14.80;13.15;;;;;;;15.49;57.83;99813.07;466688;1174;117468;-68
2021/04/18 09:34:02;;;;;;;;;;;;;;;15.24;57.14;99812.41;467204;1174;117144;-64
2021/04/18 09:44:08;;;;;;;14.30;11.47;;;;;;;14.80;56.59;99820.28;471204;1173;104412;-64
2021/04/18 09:54:16;;;;;;;12.93;10.93;;;;;;;15.38;56.84;99811.31;467568;1174;116770;-65
2021/04/18 10:04:23;;;;;;;12.80;10.90;;;;;;;16.20;54.27;99817.02;468211;1174;116952;-64
2021/04/18 10:14:27;;;;;;;9.70;8.55;;;;;;;15.71;53.72;99808.67;467164;1174;116523;-63
2021/04/18 10:24:33;;;;;;;10.87;9.20;;;;;;;15.03;54.02;99814.98;467540;1174;115859;-64
2021/04/18 10:34:38;;;;;;;10.93;9.57;;;;;;;14.31;54.00;99819.59;467001;1173;116182;-64
2021/04/18 10:44:42;;;;;;;11.50;10.00;;;;;;;13.47;54.54;99805.48;466784;1174;116250;-66
2021/04/18 10:54:47;;;;;;;13.27;11.13;;;;;;;12.89;55.64;99821.84;467658;1173;116904;-66
2021/04/18 11:04:50;;;;;;;12.83;10.70;;;;;;;12.69;56.50;99816.17;468218;1174;116504;-66
2021/04/18 11:14:54;;;;;;;14.27;11.00;;;;;;;12.68;56.22;99811.02;466991;1174;116352;-63
2021/04/18 11:25:00;;;;;;;13.90;11.83;;;;;;;12.39;56.50;99813.86;468105;1174;116020;-64
2021/04/18 11:35:04;;;;;;;14.00;12.00;;;;;;;12.30;57.35;99810.92;467961;1174;116158;-64
2021/04/18 11:45:11;;;;;;;16.85;12.65;;;;;;;12.55;56.98;99811.88;469204;1174;116650;-63
2021/04/18 11:55:16;;;;;;;13.10;10.60;;;;;;;12.13;57.18;99803.31;469687;1174;116193;-62
2021/04/18 12:05:20;;;;;;;13.57;10.80;;;;;;;11.56;57.69;99813.13;467906;1174;116294;-64
2021/04/18 12:15:25;;;;;;;14.37;11.73;;;;;;;11.30;58.50;99805.96;468024;1173;116200;-64
2021/04/18 12:25:28;;;;;;;11.97;9.67;;;;;;;11.24;58.86;99809.00;468413;1174;116365;-64
2021/04/18 12:35:34;;;;;;;12.90;11.20;;;;;;;11.67;59.20;99801.92;467800;1174;116236;-64
2021/04/18 12:45:38;;;;;;;13.10;10.75;;;;;;;12.07;58.44;99796.67;468201;1174;116134;-65
2021/04/18 12:55:42;;;;;;;20.00;12.20;;;;;;;12.85;58.14;99786.95;464489;1174;10001357;-62
2021/04/18 13:05:47;;;;;;;13.30;11.70;;;;;;;12.91;57.10;99792.77;467445;1174;118512;-64
2021/04/18 13:15:51;;;;;;;14.53;10.73;;;;;;;13.11;56.97;99794.83;469461;1174;116186;-65
2021/04/18 13:25:56;;;;;;;13.10;11.70;;;;;;;13.22;56.37;99783.50;468406;1174;116481;-64
2021/04/18 13:35:59;;;;;;;19.03;11.70;;;;;;;13.48;56.26;99783.42;467801;1174;115869;-64
2021/04/18 13:46:03;;;;;;;16.50;11.93;;;;;;;13.71;55.97;99786.16;468268;1174;115746;-64
2021/04/18 13:56:08;;;;;;;13.80;11.83;;;;;;;13.64;55.39;99779.67;460126;1174;10001642;-64
2021/04/18 14:06:13;;;;;;;15.50;11.80;;;;;;;13.58;55.58;99773.88;468471;1174;116318;-63
2021/04/18 14:16:16;;;;;;;15.50;11.13;;;;;;;13.84;55.49;99768.45;468399;1174;118045;-65
2021/04/18 14:26:23;;;;;;;15.30;12.50;;;;;;;13.94;55.11;99765.98;467855;1174;116586;-64
2021/04/18 14:36:27;;;;;;;13.35;11.60;;;;;;;13.52;54.78;99768.21;468261;1174;116386;-65
2021/04/18 14:46:34;;;;;;;14.25;11.55;;;;;;;13.56;54.79;99767.88;468506;1174;117047;-64
2021/04/18 14:56:40;;;;;;;13.80;10.85;;;;;;;13.56;54.92;99772.30;467988;1174;116758;-65
2021/04/18 15:06:43;;;;;;;13.70;11.20;;;;;;;13.33;54.41;99774.80;468392;1174;115969;-63
2021/04/18 15:16:48;;;;;;;13.23;9.83;;;;;;;12.96;54.96;99774.81;468124;1173;115852;-65
2021/04/18 15:26:53;;;;;;;12.63;10.43;;;;;;;12.70;55.09;99773.09;469903;1174;116037;-64
2021/04/18 15:36:57;;;;;;;18.57;13.40;;;;;;;12.51;55.68;99768.24;468006;1174;115805;-64
2021/04/18 15:47:01;;;;;;;13.77;11.83;;;;;;;12.24;56.09;99761.31;468831;1174;116118;-63
2021/04/18 15:57:07;;;;;;;15.00;10.45;;;;;;;12.04;56.22;99771.39;460029;1174;10002045;-64
2021/04/18 16:07:11;;;;;;;12.40;10.33;;;;;;;11.94;56.66;99765.03;467770;1174;118082;-64
2021/04/18 16:17:15;;;;;;;15.23;11.37;;;;;;;11.71;57.16;99763.95;467715;1173;116129;-62
2021/04/18 16:27:19;;;;;;;19.20;12.10;;;;;;;11.29;57.51;99761.39;468403;1174;116578;-63
2021/04/18 16:37:24;;;;;;;15.70;12.20;;;;;;;11.06;58.13;99774.22;467828;1174;117407;-64
2021/04/18 16:47:27;;;;;;;16.00;12.55;;;;;;;10.92;59.01;99781.19;467925;1174;115999;-63
2021/04/18 16:57:31;;;;;;;16.08;12.38;;;;;;;10.75;59.16;99787.48;468338;1174;116740;-76
2021/04/18 17:07:37;;;;;;;18.95;14.05;;;;;;;10.54;59.42;99789.63;468849;1174;116931;-73
2021/04/18 17:17:42;;;;;;;21.80;17.13;;;;;;;10.24;60.44;99803.64;469554;1174;116345;-72
2021/04/18 17:27:46;;;;;;;25.78;17.18;;;;;;;9.94;61.82;99821.09;473126;1174;116349;-70
2021/04/18 17:37:51;;;;;;;25.10;18.25;;;;;;;9.84;62.90;99834.81;469133;1175;117960;-71
2021/04/18 17:47:55;;;;;;;32.00;22.05;;;;;;;9.77;63.88;99842.19;459780;1173;10001116;-62
2021/04/18 17:57:59;;;;;;;30.10;21.10;;;;;;;9.68;64.29;99841.77;468260;1173;117797;-63
2021/04/18 18:08:03;;;;;;;36.17;26.70;;;;;;;9.41;64.70;99838.08;468467;1174;169458;-56
2021/04/18 18:18:07;;;;;;;31.80;23.85;;;;;;;9.12;65.60;99833.50;467657;1173;116073;-60
2021/04/18 18:28:12;;;;;;;34.50;24.35;;;;;;;8.88;66.36;99840.89;468090;1174;116275;-60
2021/04/18 18:38:16;;;;;;;47.17;25.87;;;;;;;8.59;66.85;99859.81;467097;1173;116075;-60
2021/04/18 18:48:20;;;;;;;48.60;26.47;;;;;;;8.40;67.82;99859.88;468176;1174;116184;-64
2021/04/18 18:58:24;;;;;;;33.85;22.95;;;;;;;8.42;68.35;99858.02;467249;1174;117100;-69
2021/04/18 19:08:30;;;;;;;33.20;20.50;;;;;;;8.31;68.52;99860.34;467039;1174;116216;-68
2021/04/18 19:18:34;;;;;;;40.73;22.30;;;;;;;8.20;69.20;99850.42;467667;1173;116865;-68
2021/04/18 19:28:38;;;;;;;33.70;21.20;;;;;;;8.11;69.52;99854.36;467731;1174;116912;-67
2021/04/18 19:38:42;;;;;;;30.97;20.67;;;;;;;8.12;69.68;99848.20;466840;1174;115832;-68
2021/04/18 19:48:46;;;;;;;32.30;20.87;;;;;;;8.01;70.08;99851.33;467567;1174;116636;-64
2021/04/18 19:58:50;;;;;;;29.03;21.17;;;;;;;7.77;70.24;99845.55;467532;1174;115492;-67
2021/04/18 20:08:55;;;;;;;31.77;22.27;;;;;;;7.49;70.81;99852.08;467609;1174;116374;-65
2021/04/18 20:18:59;;;;;;;37.37;27.07;;;;;;;7.33;71.68;99839.74;467683;1173;115839;-66
2021/04/18 20:29:04;;;;;;;33.00;22.50;;;;;;;7.29;71.67;99836.42;467647;1174;117819;-65
2021/04/18 20:39:07;;;;;;;33.95;22.20;;;;;;;7.17;72.04;99839.60;467074;1174;116089;-65
2021/04/18 20:49:12;;;;;;;37.87;22.77;;;;;;;7.00;72.77;99827.31;467474;1174;115581;-65
2021/04/18 20:59:16;;;;;;;44.40;29.50;;;;;;;6.80;72.95;99828.22;466802;1174;116415;-67
2021/04/18 21:09:20;;;;;;;34.80;23.30;;;;;;;6.68;72.83;99816.55;467171;1174;116007;-63
2021/04/18 21:19:24;;;;;;;43.13;26.20;;;;;;;6.54;73.51;99814.56;467085;1174;117043;-66
2021/04/18 21:29:27;;;;;;;40.43;26.30;;;;;;;6.43;73.15;99822.84;466956;1173;116362;-68
2021/04/18 21:39:31;;;;;;;50.37;29.83;;;;;;;6.39;73.43;99816.08;467564;1174;116619;-67
2021/04/18 21:49:35;;;;;;;46.10;30.70;;;;;;;6.19;73.63;99822.15;467124;1174;116001;-70
2021/04/18 21:59:39;;;;;;;42.60;29.60;;;;;;;5.96;73.90;99816.94;467238;1174;116069;-67
2021/04/18 22:09:43;;;;;;;44.70;30.55;;;;;;;5.85;74.54;99820.00;468055;1174;116248;-66
2021/04/18 22:19:46;;;;;;;45.20;30.70;;;;;;;5.95;74.08;99817.84;467849;1174;115894;-67
2021/04/18 22:29:50;;;;;;;43.73;29.23;;;;;;;6.08;74.35;99825.19;467419;1174;116260;-64
2021/04/18 22:39:55;;;;;;;43.90;29.33;;;;;;;6.38;74.57;99817.82;467457;1174;117288;-68
2021/04/18 22:49:59;;;;;;;44.70;29.10;;;;;;;6.54;74.04;99825.00;467426;1174;116455;-60
2021/04/18 23:00:06;;;;;;;43.77;32.23;;;;;;;6.57;74.49;99836.13;467096;1174;116042;-60
2021/04/18 23:10:14;;;;;;;43.03;31.47;;;;;;;6.59;74.81;99820.42;467176;1176;116412;-61
2021/04/18 23:20:18;;;;;;;44.65;32.80;;;;;;;6.79;75.25;99810.87;466954;1174;115822;-60
2021/04/18 23:30:24;;;;;;;47.25;35.60;;;;;;;6.90;75.05;99792.09;466917;1174;115961;-62
2021/04/18 23:40:27;;;;;;;45.25;30.20;;;;;;;6.96;75.08;99791.83;467225;1174;115986;-65
2021/04/18 23:50:32;;;;;;;36.35;24.35;;;;;;;7.00;74.89;99783.79;467463;1174;116285;-66
